sensor_id;sensor_type;location;lat;lon;timestamp;P1;durP1;ratioP1;P2;durP2;ratioP2
57321;SDS011;43159;51.006;18.224;2022-09-09T00:01:22;67.50;;;8.90;;
57321;SDS011;43159;51.006;18.224;2022-09-09T00:03:57;39.90;;;8.30;;
57321;SDS011;43159;51.006;18.224;2022-09-09T00:06:28;91.10;;;9.00;;
57321;SDS011;43159;51.006;18.224;2022-09-09T00:09:12;128.20;;;9.90;;
57321;SDS011;43159;51.006;18.224;2022-09-09T00:11:43;41.80;;;7.80;;
57321;SDS011;43159;51.006;18.224;2022-09-09T00:14:54;76.50;;;9.70;;
57321;SDS011;43159;51.006;18.224;2022-09-09T00:17:21;26.30;;;8.80;;
57321;SDS011;43159;51.006;18.224;2022-09-09T00:22:36;17.30;;;9.40;;
57321;SDS011;43159;51.006;18.224;2022-09-09T00:25:19;18.70;;;8.80;;
57321;SDS011;43159;51.006;18.224;2022-09-09T00:27:49;17.00;;;9.40;;
57321;SDS011;43159;51.006;18.224;2022-09-09T00:32:55;23.90;;;9.60;;
57321;SDS011;43159;51.006;18.224;2022-09-09T00:35:25;19.80;;;9.20;;
57321;SDS011;43159;51.006;18.224;2022-09-09T00:37:56;16.70;;;9.20;;
57321;SDS011;43159;51.006;18.224;2022-09-09T00:40:34;17.00;;;9.20;;
57321;SDS011;43159;51.006;18.224;2022-09-09T00:43:10;15.60;;;9.10;;
57321;SDS011;43159;51.006;18.224;2022-09-09T00:45:47;15.60;;;8.30;;
57321;SDS011;43159;51.006;18.224;2022-09-09T01:11:05;19.00;;;9.90;;
57321;SDS011;43159;51.006;18.224;2022-09-09T01:13:36;23.30;;;9.70;;
57321;SDS011;43159;51.006;18.224;2022-09-09T01:16:03;24.80;;;9.50;;
57321;SDS011;43159;51.006;18.224;2022-09-09T01:18:35;24.20;;;9.20;;
57321;SDS011;43159;51.006;18.224;2022-09-09T01:21:13;27.10;;;9.40;;
57321;SDS011;43159;51.006;18.224;2022-09-09T01:26:25;23.40;;;8.90;;
57321;SDS011;43159;51.006;18.224;2022-09-09T01:29:07;25.50;;;9.30;;
57321;SDS011;43159;51.006;18.224;2022-09-09T01:31:37;26.00;;;9.80;;
57321;SDS011;43159;51.006;18.224;2022-09-09T01:34:13;30.30;;;10.30;;
57321;SDS011;43159;51.006;18.224;2022-09-09T01:39:10;24.00;;;10.50;;
57321;SDS011;43159;51.006;18.224;2022-09-09T01:41:37;22.00;;;11.70;;
57321;SDS011;43159;51.006;18.224;2022-09-09T01:44:02;21.70;;;11.70;;
57321;SDS011;43159;51.006;18.224;2022-09-09T01:46:28;21.90;;;12.10;;
57321;SDS011;43159;51.006;18.224;2022-09-09T01:48:55;21.30;;;12.10;;
57321;SDS011;43159;51.006;18.224;2022-09-09T01:51:21;23.20;;;12.70;;
57321;SDS011;43159;51.006;18.224;2022-09-09T01:53:47;73.00;;;14.00;;
57321;SDS011;43159;51.006;18.224;2022-09-09T02:04:49;69.20;;;15.80;;
57321;SDS011;43159;51.006;18.224;2022-09-09T02:09:49;83.60;;;16.70;;
57321;SDS011;43159;51.006;18.224;2022-09-09T02:12:18;46.20;;;16.40;;
57321;SDS011;43159;51.006;18.224;2022-09-09T02:14:50;49.60;;;17.30;;
57321;SDS011;43159;51.006;18.224;2022-09-09T02:17:38;80.80;;;17.60;;
57321;SDS011;43159;51.006;18.224;2022-09-09T02:20:07;72.20;;;16.00;;
57321;SDS011;43159;51.006;18.224;2022-09-09T02:22:35;62.50;;;15.20;;
57321;SDS011;43159;51.006;18.224;2022-09-09T02:25:05;88.60;;;16.20;;
57321;SDS011;43159;51.006;18.224;2022-09-09T02:27:32;148.40;;;16.90;;
57321;SDS011;43159;51.006;18.224;2022-09-09T02:29:58;113.00;;;15.90;;
57321;SDS011;43159;51.006;18.224;2022-09-09T02:32:27;62.90;;;15.20;;
57321;SDS011;43159;51.006;18.224;2022-09-09T02:35:17;27.10;;;14.20;;
57321;SDS011;43159;51.006;18.224;2022-09-09T02:37:44;23.00;;;13.50;;
57321;SDS011;43159;51.006;18.224;2022-09-09T02:40:13;24.00;;;14.40;;
57321;SDS011;43159;51.006;18.224;2022-09-09T02:42:41;23.40;;;14.10;;
57321;SDS011;43159;51.006;18.224;2022-09-09T02:45:09;24.10;;;14.30;;
57321;SDS011;43159;51.006;18.224;2022-09-09T02:47:42;22.30;;;13.60;;
57321;SDS011;43159;51.006;18.224;2022-09-09T02:50:19;23.10;;;13.90;;
57321;SDS011;43159;51.006;18.224;2022-09-09T02:52:54;22.80;;;14.80;;
57321;SDS011;43159;51.006;18.224;2022-09-09T02:55:46;21.60;;;13.80;;
57321;SDS011;43159;51.006;18.224;2022-09-09T02:58:15;24.50;;;14.50;;
57321;SDS011;43159;51.006;18.224;2022-09-09T03:00:43;23.70;;;14.60;;
57321;SDS011;43159;51.006;18.224;2022-09-09T03:03:11;44.50;;;13.90;;
57321;SDS011;43159;51.006;18.224;2022-09-09T03:05:36;71.50;;;12.60;;
57321;SDS011;43159;51.006;18.224;2022-09-09T03:08:03;65.00;;;11.40;;
57321;SDS011;43159;51.006;18.224;2022-09-09T03:10:31;103.70;;;12.20;;
57321;SDS011;43159;51.006;18.224;2022-09-09T03:12:58;89.00;;;11.70;;
57321;SDS011;43159;51.006;18.224;2022-09-09T03:15:23;83.60;;;12.60;;
57321;SDS011;43159;51.006;18.224;2022-09-09T03:17:49;46.20;;;12.00;;
57321;SDS011;43159;51.006;18.224;2022-09-09T03:20:14;39.00;;;11.40;;
57321;SDS011;43159;51.006;18.224;2022-09-09T03:22:40;44.80;;;10.60;;
57321;SDS011;43159;51.006;18.224;2022-09-09T03:25:06;65.10;;;10.40;;
57321;SDS011;43159;51.006;18.224;2022-09-09T03:27:32;83.10;;;11.00;;
57321;SDS011;43159;51.006;18.224;2022-09-09T03:29:58;145.00;;;11.90;;
57321;SDS011;43159;51.006;18.224;2022-09-09T03:32:24;188.80;;;12.10;;
57321;SDS011;43159;51.006;18.224;2022-09-09T03:34:51;136.50;;;12.70;;
57321;SDS011;43159;51.006;18.224;2022-09-09T03:37:17;55.90;;;11.70;;
57321;SDS011;43159;51.006;18.224;2022-09-09T03:39:44;42.10;;;12.60;;
57321;SDS011;43159;51.006;18.224;2022-09-09T03:42:12;20.40;;;13.80;;
57321;SDS011;43159;51.006;18.224;2022-09-09T03:44:39;20.80;;;14.50;;
57321;SDS011;43159;51.006;18.224;2022-09-09T03:47:07;21.60;;;14.60;;
57321;SDS011;43159;51.006;18.224;2022-09-09T03:49:33;22.10;;;14.90;;
57321;SDS011;43159;51.006;18.224;2022-09-09T03:51:59;20.50;;;14.40;;
57321;SDS011;43159;51.006;18.224;2022-09-09T03:54:26;22.10;;;15.40;;
57321;SDS011;43159;51.006;18.224;2022-09-09T03:56:52;21.60;;;15.90;;
57321;SDS011;43159;51.006;18.224;2022-09-09T03:59:18;20.50;;;14.60;;
57321;SDS011;43159;51.006;18.224;2022-09-09T04:01:43;21.00;;;14.70;;
57321;SDS011;43159;51.006;18.224;2022-09-09T04:04:10;21.20;;;14.90;;
57321;SDS011;43159;51.006;18.224;2022-09-09T04:06:38;21.50;;;14.70;;
57321;SDS011;43159;51.006;18.224;2022-09-09T04:09:04;21.60;;;14.70;;
57321;SDS011;43159;51.006;18.224;2022-09-09T04:11:29;20.50;;;13.40;;
57321;SDS011;43159;51.006;18.224;2022-09-09T04:13:55;20.70;;;13.80;;
57321;SDS011;43159;51.006;18.224;2022-09-09T04:16:21;18.30;;;12.90;;
57321;SDS011;43159;51.006;18.224;2022-09-09T04:18:47;21.10;;;13.00;;
57321;SDS011;43159;51.006;18.224;2022-09-09T04:21:13;18.70;;;13.10;;
57321;SDS011;43159;51.006;18.224;2022-09-09T04:23:39;20.70;;;13.90;;
57321;SDS011;43159;51.006;18.224;2022-09-09T04:26:05;20.70;;;14.20;;
57321;SDS011;43159;51.006;18.224;2022-09-09T04:28:32;20.20;;;14.20;;
57321;SDS011;43159;51.006;18.224;2022-09-09T04:31:08;21.70;;;15.10;;
57321;SDS011;43159;51.006;18.224;2022-09-09T04:33:36;19.60;;;13.80;;
57321;SDS011;43159;51.006;18.224;2022-09-09T04:36:03;20.00;;;14.70;;
57321;SDS011;43159;51.006;18.224;2022-09-09T04:38:29;23.00;;;14.50;;
57321;SDS011;43159;51.006;18.224;2022-09-09T04:40:54;22.00;;;14.40;;
57321;SDS011;43159;51.006;18.224;2022-09-09T04:43:20;18.80;;;14.20;;
57321;SDS011;43159;51.006;18.224;2022-09-09T04:45:46;20.80;;;14.00;;
57321;SDS011;43159;51.006;18.224;2022-09-09T04:48:13;19.10;;;14.00;;
57321;SDS011;43159;51.006;18.224;2022-09-09T04:50:39;19.50;;;13.70;;
57321;SDS011;43159;51.006;18.224;2022-09-09T04:53:06;18.40;;;13.30;;
57321;SDS011;43159;51.006;18.224;2022-09-09T04:55:32;20.50;;;13.20;;
57321;SDS011;43159;51.006;18.224;2022-09-09T04:58:03;18.90;;;13.50;;
57321;SDS011;43159;51.006;18.224;2022-09-09T05:00:33;18.30;;;13.30;;
57321;SDS011;43159;51.006;18.224;2022-09-09T05:03:06;17.80;;;12.80;;
57321;SDS011;43159;51.006;18.224;2022-09-09T05:05:33;16.50;;;12.30;;
57321;SDS011;43159;51.006;18.224;2022-09-09T05:08:03;17.20;;;12.30;;
57321;SDS011;43159;51.006;18.224;2022-09-09T05:10:30;17.00;;;12.50;;
57321;SDS011;43159;51.006;18.224;2022-09-09T05:12:56;17.50;;;12.20;;
57321;SDS011;43159;51.006;18.224;2022-09-09T05:15:21;17.50;;;12.30;;
57321;SDS011;43159;51.006;18.224;2022-09-09T05:17:47;17.00;;;12.00;;
57321;SDS011;43159;51.006;18.224;2022-09-09T05:20:12;16.10;;;11.10;;
57321;SDS011;43159;51.006;18.224;2022-09-09T05:22:38;14.60;;;10.20;;
57321;SDS011;43159;51.006;18.224;2022-09-09T05:25:04;14.70;;;9.00;;
57321;SDS011;43159;51.006;18.224;2022-09-09T05:27:30;15.40;;;9.10;;
57321;SDS011;43159;51.006;18.224;2022-09-09T05:29:58;13.90;;;8.80;;
57321;SDS011;43159;51.006;18.224;2022-09-09T05:32:23;13.60;;;8.30;;
57321;SDS011;43159;51.006;18.224;2022-09-09T05:34:49;12.30;;;7.80;;
57321;SDS011;43159;51.006;18.224;2022-09-09T05:37:15;13.50;;;7.50;;
57321;SDS011;43159;51.006;18.224;2022-09-09T05:39:41;12.10;;;6.80;;
57321;SDS011;43159;51.006;18.224;2022-09-09T05:42:07;12.30;;;6.90;;
57321;SDS011;43159;51.006;18.224;2022-09-09T05:44:32;11.20;;;6.30;;
57321;SDS011;43159;51.006;18.224;2022-09-09T05:46:58;12.40;;;6.30;;
57321;SDS011;43159;51.006;18.224;2022-09-09T05:49:24;11.70;;;6.50;;
57321;SDS011;43159;51.006;18.224;2022-09-09T05:51:49;13.90;;;7.10;;
57321;SDS011;43159;51.006;18.224;2022-09-09T05:54:16;11.90;;;6.20;;
57321;SDS011;43159;51.006;18.224;2022-09-09T05:56:42;11.60;;;6.20;;
57321;SDS011;43159;51.006;18.224;2022-09-09T05:59:08;11.60;;;6.30;;
57321;SDS011;43159;51.006;18.224;2022-09-09T06:01:35;11.30;;;5.50;;
57321;SDS011;43159;51.006;18.224;2022-09-09T06:04:05;11.40;;;5.90;;
57321;SDS011;43159;51.006;18.224;2022-09-09T06:06:32;11.30;;;5.30;;
57321;SDS011;43159;51.006;18.224;2022-09-09T06:09:02;11.00;;;5.40;;
57321;SDS011;43159;51.006;18.224;2022-09-09T06:11:31;11.10;;;5.40;;
57321;SDS011;43159;51.006;18.224;2022-09-09T06:13:59;11.00;;;5.30;;
57321;SDS011;43159;51.006;18.224;2022-09-09T06:16:25;11.70;;;5.30;;
57321;SDS011;43159;51.006;18.224;2022-09-09T06:18:52;10.40;;;4.80;;
57321;SDS011;43159;51.006;18.224;2022-09-09T06:21:20;10.60;;;4.90;;
57321;SDS011;43159;51.006;18.224;2022-09-09T06:23:47;9.80;;;4.80;;
57321;SDS011;43159;51.006;18.224;2022-09-09T06:26:17;10.30;;;4.60;;
57321;SDS011;43159;51.006;18.224;2022-09-09T06:28:45;10.40;;;4.80;;
57321;SDS011;43159;51.006;18.224;2022-09-09T06:31:13;10.30;;;4.60;;
57321;SDS011;43159;51.006;18.224;2022-09-09T06:33:41;10.10;;;4.90;;
57321;SDS011;43159;51.006;18.224;2022-09-09T06:36:09;10.30;;;4.80;;
57321;SDS011;43159;51.006;18.224;2022-09-09T06:38:40;10.00;;;4.70;;
57321;SDS011;43159;51.006;18.224;2022-09-09T06:41:08;10.70;;;4.90;;
57321;SDS011;43159;51.006;18.224;2022-09-09T06:43:34;11.80;;;5.10;;
57321;SDS011;43159;51.006;18.224;2022-09-09T06:48:31;10.20;;;4.80;;
57321;SDS011;43159;51.006;18.224;2022-09-09T06:51:00;9.90;;;4.80;;
57321;SDS011;43159;51.006;18.224;2022-09-09T06:53:39;10.20;;;4.50;;
57321;SDS011;43159;51.006;18.224;2022-09-09T06:58:35;10.40;;;4.30;;
57321;SDS011;43159;51.006;18.224;2022-09-09T07:01:04;10.10;;;4.30;;
57321;SDS011;43159;51.006;18.224;2022-09-09T07:03:31;9.50;;;4.30;;
57321;SDS011;43159;51.006;18.224;2022-09-09T07:05:57;10.10;;;3.90;;
57321;SDS011;43159;51.006;18.224;2022-09-09T07:08:23;10.40;;;4.10;;
57321;SDS011;43159;51.006;18.224;2022-09-09T07:10:50;8.90;;;4.00;;
57321;SDS011;43159;51.006;18.224;2022-09-09T07:13:25;10.00;;;4.50;;
57321;SDS011;43159;51.006;18.224;2022-09-09T07:15:51;9.40;;;4.60;;
57321;SDS011;43159;51.006;18.224;2022-09-09T07:18:17;11.10;;;5.30;;
57321;SDS011;43159;51.006;18.224;2022-09-09T07:20:52;10.20;;;4.80;;
57321;SDS011;43159;51.006;18.224;2022-09-09T07:23:19;9.60;;;3.80;;
57321;SDS011;43159;51.006;18.224;2022-09-09T07:25:45;9.30;;;3.30;;
57321;SDS011;43159;51.006;18.224;2022-09-09T07:28:13;10.20;;;4.90;;
57321;SDS011;43159;51.006;18.224;2022-09-09T07:30:39;11.80;;;4.40;;
57321;SDS011;43159;51.006;18.224;2022-09-09T07:33:05;9.80;;;4.10;;
57321;SDS011;43159;51.006;18.224;2022-09-09T07:35:31;9.30;;;4.00;;
57321;SDS011;43159;51.006;18.224;2022-09-09T07:37:57;9.70;;;4.10;;
57321;SDS011;43159;51.006;18.224;2022-09-09T07:40:24;9.30;;;4.10;;
57321;SDS011;43159;51.006;18.224;2022-09-09T07:42:50;9.60;;;4.00;;
57321;SDS011;43159;51.006;18.224;2022-09-09T07:45:15;9.20;;;3.50;;
57321;SDS011;43159;51.006;18.224;2022-09-09T07:47:41;9.50;;;4.10;;
57321;SDS011;43159;51.006;18.224;2022-09-09T07:50:08;9.70;;;3.90;;
57321;SDS011;43159;51.006;18.224;2022-09-09T07:52:35;10.40;;;4.40;;
57321;SDS011;43159;51.006;18.224;2022-09-09T07:55:01;9.30;;;4.00;;
57321;SDS011;43159;51.006;18.224;2022-09-09T07:57:28;9.90;;;4.00;;
57321;SDS011;43159;51.006;18.224;2022-09-09T07:59:56;9.40;;;3.70;;
57321;SDS011;43159;51.006;18.224;2022-09-09T08:02:23;9.80;;;4.10;;
57321;SDS011;43159;51.006;18.224;2022-09-09T08:04:49;11.50;;;4.40;;
57321;SDS011;43159;51.006;18.224;2022-09-09T08:07:15;9.80;;;4.20;;
57321;SDS011;43159;51.006;18.224;2022-09-09T08:09:42;9.00;;;4.10;;
57321;SDS011;43159;51.006;18.224;2022-09-09T08:12:09;9.70;;;4.30;;
57321;SDS011;43159;51.006;18.224;2022-09-09T08:14:35;11.50;;;4.80;;
57321;SDS011;43159;51.006;18.224;2022-09-09T08:17:01;9.20;;;4.20;;
57321;SDS011;43159;51.006;18.224;2022-09-09T08:19:27;9.80;;;4.10;;
57321;SDS011;43159;51.006;18.224;2022-09-09T08:21:55;10.30;;;3.30;;
57321;SDS011;43159;51.006;18.224;2022-09-09T08:24:21;8.00;;;2.70;;
57321;SDS011;43159;51.006;18.224;2022-09-09T08:26:48;8.40;;;2.70;;
57321;SDS011;43159;51.006;18.224;2022-09-09T08:29:14;8.10;;;2.80;;
57321;SDS011;43159;51.006;18.224;2022-09-09T08:31:42;8.20;;;2.60;;
57321;SDS011;43159;51.006;18.224;2022-09-09T08:34:09;8.50;;;2.40;;
57321;SDS011;43159;51.006;18.224;2022-09-09T08:36:40;7.80;;;2.30;;
57321;SDS011;43159;51.006;18.224;2022-09-09T08:39:08;8.20;;;2.50;;
57321;SDS011;43159;51.006;18.224;2022-09-09T08:54:45;7.60;;;2.40;;
57321;SDS011;43159;51.006;18.224;2022-09-09T08:57:13;7.40;;;2.30;;
57321;SDS011;43159;51.006;18.224;2022-09-09T08:59:41;8.30;;;2.70;;
57321;SDS011;43159;51.006;18.224;2022-09-09T09:10:29;8.20;;;2.40;;
57321;SDS011;43159;51.006;18.224;2022-09-09T09:13:06;7.90;;;2.20;;
57321;SDS011;43159;51.006;18.224;2022-09-09T09:15:38;6.90;;;2.10;;
57321;SDS011;43159;51.006;18.224;2022-09-09T09:18:07;7.60;;;2.30;;
57321;SDS011;43159;51.006;18.224;2022-09-09T09:23:09;9.70;;;2.30;;
57321;SDS011;43159;51.006;18.224;2022-09-09T09:25:43;7.30;;;2.10;;
57321;SDS011;43159;51.006;18.224;2022-09-09T09:30:49;6.60;;;2.10;;
57321;SDS011;43159;51.006;18.224;2022-09-09T09:33:48;7.70;;;2.40;;
57321;SDS011;43159;51.006;18.224;2022-09-09T09:36:16;7.10;;;2.30;;
57321;SDS011;43159;51.006;18.224;2022-09-09T09:38:57;7.90;;;2.50;;
57321;SDS011;43159;51.006;18.224;2022-09-09T09:43:55;6.40;;;2.10;;
57321;SDS011;43159;51.006;18.224;2022-09-09T09:46:21;7.00;;;2.20;;
57321;SDS011;43159;51.006;18.224;2022-09-09T09:48:59;6.90;;;2.10;;
57321;SDS011;43159;51.006;18.224;2022-09-09T09:51:29;7.10;;;2.20;;
57321;SDS011;43159;51.006;18.224;2022-09-09T09:56:42;8.20;;;2.10;;
57321;SDS011;43159;51.006;18.224;2022-09-09T10:01:52;7.10;;;2.20;;
57321;SDS011;43159;51.006;18.224;2022-09-09T10:04:22;6.90;;;2.10;;
57321;SDS011;43159;51.006;18.224;2022-09-09T10:23:47;9.00;;;2.10;;
57321;SDS011;43159;51.006;18.224;2022-09-09T10:34:21;8.30;;;1.90;;
57321;SDS011;43159;51.006;18.224;2022-09-09T10:37:00;8.80;;;2.00;;
57321;SDS011;43159;51.006;18.224;2022-09-09T10:39:37;7.70;;;1.80;;
57321;SDS011;43159;51.006;18.224;2022-09-09T10:44:53;6.40;;;2.00;;
57321;SDS011;43159;51.006;18.224;2022-09-09T10:47:37;6.50;;;2.00;;
57321;SDS011;43159;51.006;18.224;2022-09-09T10:53:24;5.90;;;1.90;;
57321;SDS011;43159;51.006;18.224;2022-09-09T10:56:01;5.20;;;1.80;;
57321;SDS011;43159;51.006;18.224;2022-09-09T10:58:36;7.20;;;2.10;;
57321;SDS011;43159;51.006;18.224;2022-09-09T11:01:12;7.20;;;2.00;;
57321;SDS011;43159;51.006;18.224;2022-09-09T11:03:42;6.90;;;2.10;;
57321;SDS011;43159;51.006;18.224;2022-09-09T11:06:15;7.20;;;2.00;;
57321;SDS011;43159;51.006;18.224;2022-09-09T11:08:43;6.20;;;2.20;;
57321;SDS011;43159;51.006;18.224;2022-09-09T11:11:16;5.70;;;2.00;;
57321;SDS011;43159;51.006;18.224;2022-09-09T11:16:51;6.10;;;1.90;;
57321;SDS011;43159;51.006;18.224;2022-09-09T11:19:38;6.00;;;1.80;;
57321;SDS011;43159;51.006;18.224;2022-09-09T11:24:53;6.50;;;1.80;;
57321;SDS011;43159;51.006;18.224;2022-09-09T11:28:24;7.20;;;1.90;;
57321;SDS011;43159;51.006;18.224;2022-09-09T11:44:39;5.60;;;1.80;;
57321;SDS011;43159;51.006;18.224;2022-09-09T11:49:49;6.60;;;2.00;;
57321;SDS011;43159;51.006;18.224;2022-09-09T11:52:34;4.80;;;1.60;;
57321;SDS011;43159;51.006;18.224;2022-09-09T11:57:59;6.40;;;1.90;;
57321;SDS011;43159;51.006;18.224;2022-09-09T12:00:38;6.80;;;1.90;;
57321;SDS011;43159;51.006;18.224;2022-09-09T12:05:57;7.70;;;1.80;;
57321;SDS011;43159;51.006;18.224;2022-09-09T12:08:26;7.40;;;1.80;;
57321;SDS011;43159;51.006;18.224;2022-09-09T12:10:54;5.10;;;1.60;;
57321;SDS011;43159;51.006;18.224;2022-09-09T12:13:22;8.60;;;2.10;;
57321;SDS011;43159;51.006;18.224;2022-09-09T12:15:50;7.90;;;2.00;;
57321;SDS011;43159;51.006;18.224;2022-09-09T12:18:32;8.30;;;1.90;;
57321;SDS011;43159;51.006;18.224;2022-09-09T12:23:57;6.00;;;1.70;;
57321;SDS011;43159;51.006;18.224;2022-09-09T12:32:16;5.60;;;1.70;;
57321;SDS011;43159;51.006;18.224;2022-09-09T12:35:07;5.20;;;1.70;;
57321;SDS011;43159;51.006;18.224;2022-09-09T12:37:49;5.50;;;1.60;;
57321;SDS011;43159;51.006;18.224;2022-09-09T12:40:23;5.50;;;1.70;;
57321;SDS011;43159;51.006;18.224;2022-09-09T12:42:49;5.40;;;1.60;;
57321;SDS011;43159;51.006;18.224;2022-09-09T12:45:19;6.20;;;1.70;;
57321;SDS011;43159;51.006;18.224;2022-09-09T12:47:51;5.90;;;1.70;;
57321;SDS011;43159;51.006;18.224;2022-09-09T12:50:22;7.60;;;1.70;;
57321;SDS011;43159;51.006;18.224;2022-09-09T12:52:54;7.00;;;1.80;;
57321;SDS011;43159;51.006;18.224;2022-09-09T12:55:24;6.80;;;1.90;;
57321;SDS011;43159;51.006;18.224;2022-09-09T12:57:55;6.80;;;1.80;;
57321;SDS011;43159;51.006;18.224;2022-09-09T13:00:23;7.20;;;1.80;;
57321;SDS011;43159;51.006;18.224;2022-09-09T13:02:57;6.90;;;1.70;;
57321;SDS011;43159;51.006;18.224;2022-09-09T13:05:34;6.10;;;1.70;;
57321;SDS011;43159;51.006;18.224;2022-09-09T13:08:04;5.60;;;1.60;;
57321;SDS011;43159;51.006;18.224;2022-09-09T13:10:32;6.40;;;1.80;;
57321;SDS011;43159;51.006;18.224;2022-09-09T13:13:01;6.30;;;1.70;;
57321;SDS011;43159;51.006;18.224;2022-09-09T13:15:28;5.40;;;1.70;;
57321;SDS011;43159;51.006;18.224;2022-09-09T13:17:55;5.60;;;1.60;;
57321;SDS011;43159;51.006;18.224;2022-09-09T13:20:22;5.80;;;1.70;;
57321;SDS011;43159;51.006;18.224;2022-09-09T13:22:49;6.50;;;1.70;;
57321;SDS011;43159;51.006;18.224;2022-09-09T13:25:26;4.90;;;1.70;;
57321;SDS011;43159;51.006;18.224;2022-09-09T13:27:53;6.60;;;1.70;;
57321;SDS011;43159;51.006;18.224;2022-09-09T13:30:27;8.30;;;1.90;;
57321;SDS011;43159;51.006;18.224;2022-09-09T13:33:02;6.20;;;1.80;;
57321;SDS011;43159;51.006;18.224;2022-09-09T13:35:31;5.90;;;1.70;;
57321;SDS011;43159;51.006;18.224;2022-09-09T13:37:58;7.00;;;1.70;;
57321;SDS011;43159;51.006;18.224;2022-09-09T13:40:25;5.40;;;1.70;;
57321;SDS011;43159;51.006;18.224;2022-09-09T13:42:51;7.40;;;1.90;;
57321;SDS011;43159;51.006;18.224;2022-09-09T13:45:20;6.50;;;1.80;;
57321;SDS011;43159;51.006;18.224;2022-09-09T13:47:48;6.80;;;1.70;;
57321;SDS011;43159;51.006;18.224;2022-09-09T13:50:21;5.40;;;1.60;;
57321;SDS011;43159;51.006;18.224;2022-09-09T13:52:53;6.00;;;1.70;;
57321;SDS011;43159;51.006;18.224;2022-09-09T13:55:26;6.30;;;1.80;;
57321;SDS011;43159;51.006;18.224;2022-09-09T13:57:59;6.00;;;1.80;;
57321;SDS011;43159;51.006;18.224;2022-09-09T14:00:31;5.10;;;1.70;;
57321;SDS011;43159;51.006;18.224;2022-09-09T14:02:58;6.80;;;1.70;;
57321;SDS011;43159;51.006;18.224;2022-09-09T14:05:27;6.90;;;1.80;;
57321;SDS011;43159;51.006;18.224;2022-09-09T14:07:52;4.20;;;1.50;;
57321;SDS011;43159;51.006;18.224;2022-09-09T14:10:18;6.00;;;1.70;;
57321;SDS011;43159;51.006;18.224;2022-09-09T14:12:44;5.20;;;1.60;;
57321;SDS011;43159;51.006;18.224;2022-09-09T14:15:10;5.60;;;1.60;;
57321;SDS011;43159;51.006;18.224;2022-09-09T14:17:36;6.20;;;1.60;;
57321;SDS011;43159;51.006;18.224;2022-09-09T14:20:05;7.60;;;1.90;;
57321;SDS011;43159;51.006;18.224;2022-09-09T14:22:34;7.10;;;1.70;;
57321;SDS011;43159;51.006;18.224;2022-09-09T14:25:01;6.10;;;1.60;;
57321;SDS011;43159;51.006;18.224;2022-09-09T14:27:27;5.80;;;1.60;;
57321;SDS011;43159;51.006;18.224;2022-09-09T14:29:54;5.30;;;1.50;;
57321;SDS011;43159;51.006;18.224;2022-09-09T14:32:20;7.00;;;1.70;;
57321;SDS011;43159;51.006;18.224;2022-09-09T14:34:46;5.20;;;1.60;;
57321;SDS011;43159;51.006;18.224;2022-09-09T14:37:15;5.70;;;1.60;;
57321;SDS011;43159;51.006;18.224;2022-09-09T14:39:42;5.90;;;1.50;;
57321;SDS011;43159;51.006;18.224;2022-09-09T14:42:12;5.20;;;1.60;;
57321;SDS011;43159;51.006;18.224;2022-09-09T14:44:39;7.50;;;1.70;;
57321;SDS011;43159;51.006;18.224;2022-09-09T14:47:06;5.90;;;1.60;;
57321;SDS011;43159;51.006;18.224;2022-09-09T14:49:33;5.80;;;1.60;;
57321;SDS011;43159;51.006;18.224;2022-09-09T14:51:59;5.50;;;1.60;;
57321;SDS011;43159;51.006;18.224;2022-09-09T14:54:25;7.40;;;1.60;;
57321;SDS011;43159;51.006;18.224;2022-09-09T14:56:51;5.60;;;1.50;;
57321;SDS011;43159;51.006;18.224;2022-09-09T14:59:16;5.20;;;1.60;;
57321;SDS011;43159;51.006;18.224;2022-09-09T15:01:41;6.00;;;1.70;;
57321;SDS011;43159;51.006;18.224;2022-09-09T15:04:07;8.10;;;1.60;;
57321;SDS011;43159;51.006;18.224;2022-09-09T15:06:36;4.80;;;1.40;;
57321;SDS011;43159;51.006;18.224;2022-09-09T15:09:03;6.10;;;1.60;;
57321;SDS011;43159;51.006;18.224;2022-09-09T15:11:29;5.90;;;1.60;;
57321;SDS011;43159;51.006;18.224;2022-09-09T15:13:57;6.90;;;1.60;;
57321;SDS011;43159;51.006;18.224;2022-09-09T15:16:24;6.70;;;1.70;;
57321;SDS011;43159;51.006;18.224;2022-09-09T15:18:53;4.60;;;1.60;;
57321;SDS011;43159;51.006;18.224;2022-09-09T15:21:21;5.80;;;1.60;;
57321;SDS011;43159;51.006;18.224;2022-09-09T15:23:48;6.50;;;1.80;;
57321;SDS011;43159;51.006;18.224;2022-09-09T15:26:14;7.60;;;2.20;;
57321;SDS011;43159;51.006;18.224;2022-09-09T15:28:41;5.90;;;1.80;;
57321;SDS011;43159;51.006;18.224;2022-09-09T15:31:09;7.20;;;1.80;;
57321;SDS011;43159;51.006;18.224;2022-09-09T15:33:37;8.60;;;2.00;;
57321;SDS011;43159;51.006;18.224;2022-09-09T15:36:12;8.20;;;2.00;;
57321;SDS011;43159;51.006;18.224;2022-09-09T15:38:44;6.70;;;2.00;;
57321;SDS011;43159;51.006;18.224;2022-09-09T15:41:11;9.10;;;2.30;;
57321;SDS011;43159;51.006;18.224;2022-09-09T15:43:38;5.90;;;1.80;;
57321;SDS011;43159;51.006;18.224;2022-09-09T15:48:43;7.40;;;2.10;;
57321;SDS011;43159;51.006;18.224;2022-09-09T15:51:10;7.70;;;1.90;;
57321;SDS011;43159;51.006;18.224;2022-09-09T15:53:39;10.30;;;2.00;;
57321;SDS011;43159;51.006;18.224;2022-09-09T15:56:05;6.90;;;1.90;;
57321;SDS011;43159;51.006;18.224;2022-09-09T15:58:35;6.70;;;2.00;;
57321;SDS011;43159;51.006;18.224;2022-09-09T16:01:02;6.90;;;2.00;;
57321;SDS011;43159;51.006;18.224;2022-09-09T16:03:36;7.10;;;1.90;;
57321;SDS011;43159;51.006;18.224;2022-09-09T16:06:03;7.70;;;2.20;;
57321;SDS011;43159;51.006;18.224;2022-09-09T16:08:37;8.10;;;2.40;;
57321;SDS011;43159;51.006;18.224;2022-09-09T16:11:08;7.90;;;2.50;;
57321;SDS011;43159;51.006;18.224;2022-09-09T16:13:37;7.40;;;2.20;;
57321;SDS011;43159;51.006;18.224;2022-09-09T16:16:03;7.00;;;2.00;;
57321;SDS011;43159;51.006;18.224;2022-09-09T16:18:36;8.10;;;2.40;;
57321;SDS011;43159;51.006;18.224;2022-09-09T16:21:03;8.90;;;2.50;;
57321;SDS011;43159;51.006;18.224;2022-09-09T16:23:31;9.70;;;2.40;;
57321;SDS011;43159;51.006;18.224;2022-09-09T16:25:57;11.50;;;3.80;;
57321;SDS011;43159;51.006;18.224;2022-09-09T16:28:23;9.70;;;3.10;;
57321;SDS011;43159;51.006;18.224;2022-09-09T16:30:49;13.50;;;4.80;;
57321;SDS011;43159;51.006;18.224;2022-09-09T16:33:15;16.90;;;7.10;;
57321;SDS011;43159;51.006;18.224;2022-09-09T16:35:42;18.00;;;8.20;;
57321;SDS011;43159;51.006;18.224;2022-09-09T16:38:07;24.10;;;12.30;;
57321;SDS011;43159;51.006;18.224;2022-09-09T16:40:34;21.50;;;11.20;;
57321;SDS011;43159;51.006;18.224;2022-09-09T16:43:00;17.60;;;9.30;;
57321;SDS011;43159;51.006;18.224;2022-09-09T16:45:26;17.20;;;8.40;;
57321;SDS011;43159;51.006;18.224;2022-09-09T16:47:52;16.70;;;7.80;;
57321;SDS011;43159;51.006;18.224;2022-09-09T16:50:18;13.30;;;5.50;;
57321;SDS011;43159;51.006;18.224;2022-09-09T16:52:44;14.90;;;6.20;;
57321;SDS011;43159;51.006;18.224;2022-09-09T16:55:09;17.20;;;8.00;;
57321;SDS011;43159;51.006;18.224;2022-09-09T16:57:35;19.90;;;8.70;;
57321;SDS011;43159;51.006;18.224;2022-09-09T17:00:01;14.70;;;5.90;;
57321;SDS011;43159;51.006;18.224;2022-09-09T17:02:29;11.00;;;3.60;;
57321;SDS011;43159;51.006;18.224;2022-09-09T17:04:55;9.10;;;2.70;;
57321;SDS011;43159;51.006;18.224;2022-09-09T17:07:21;9.80;;;3.20;;
57321;SDS011;43159;51.006;18.224;2022-09-09T17:09:47;11.10;;;3.30;;